sensor_id;sensor_type;location;lat;lon;timestamp;temperature;humidity
12977;DHT22;6553;48.412;9.514;2022-10-23T00:01:21;18.70;99.90
12977;DHT22;6553;48.412;9.514;2022-10-23T00:03:53;18.70;99.90
12977;DHT22;6553;48.412;9.514;2022-10-23T00:06:21;18.70;99.90
12977;DHT22;6553;48.412;9.514;2022-10-23T00:08:48;18.70;99.90
12977;DHT22;6553;48.412;9.514;2022-10-23T00:11:21;18.70;99.90
12977;DHT22;6553;48.412;9.514;2022-10-23T00:13:50;18.70;99.90
12977;DHT22;6553;48.412;9.514;2022-10-23T00:16:18;18.70;99.90
12977;DHT22;6553;48.412;9.514;2022-10-23T00:18:44;18.70;99.90
12977;DHT22;6553;48.412;9.514;2022-10-23T00:21:11;18.70;99.90
12977;DHT22;6553;48.412;9.514;2022-10-23T00:23:39;18.70;99.90
12977;DHT22;6553;48.412;9.514;2022-10-23T00:26:06;18.70;99.90
12977;DHT22;6553;48.412;9.514;2022-10-23T00:28:33;18.70;99.90
12977;DHT22;6553;48.412;9.514;2022-10-23T00:31:03;18.70;99.90
12977;DHT22;6553;48.412;9.514;2022-10-23T00:33:30;18.70;99.90
12977;DHT22;6553;48.412;9.514;2022-10-23T00:35:57;18.70;99.90
12977;DHT22;6553;48.412;9.514;2022-10-23T00:38:23;18.70;99.90
12977;DHT22;6553;48.412;9.514;2022-10-23T00:40:50;18.70;99.90
12977;DHT22;6553;48.412;9.514;2022-10-23T00:43:22;18.70;99.90
12977;DHT22;6553;48.412;9.514;2022-10-23T00:45:50;18.70;99.90
12977;DHT22;6553;48.412;9.514;2022-10-23T00:48:17;18.70;99.90
12977;DHT22;6553;48.412;9.514;2022-10-23T00:50:43;18.70;99.90
12977;DHT22;6553;48.412;9.514;2022-10-23T00:53:12;18.60;99.90
12977;DHT22;6553;48.412;9.514;2022-10-23T00:55:41;18.70;99.90
12977;DHT22;6553;48.412;9.514;2022-10-23T00:58:12;18.60;99.90
12977;DHT22;6553;48.412;9.514;2022-10-23T01:01:15;18.60;99.90
12977;DHT22;6553;48.412;9.514;2022-10-23T01:03:42;18.70;99.90
12977;DHT22;6553;48.412;9.514;2022-10-23T01:06:30;18.60;99.90
12977;DHT22;6553;48.412;9.514;2022-10-23T01:09:21;18.70;99.90
12977;DHT22;6553;48.412;9.514;2022-10-23T01:18:26;18.60;99.90
12977;DHT22;6553;48.412;9.514;2022-10-23T01:21:27;18.60;99.90
12977;DHT22;6553;48.412;9.514;2022-10-23T01:24:05;18.60;99.90
12977;DHT22;6553;48.412;9.514;2022-10-23T01:29:58;18.60;99.90
12977;DHT22;6553;48.412;9.514;2022-10-23T01:32:38;18.60;99.90
12977;DHT22;6553;48.412;9.514;2022-10-23T01:38:06;18.60;99.90
12977;DHT22;6553;48.412;9.514;2022-10-23T01:40:45;18.60;99.90
12977;DHT22;6553;48.412;9.514;2022-10-23T01:43:23;18.60;99.90
12977;DHT22;6553;48.412;9.514;2022-10-23T01:45:56;18.60;99.90
12977;DHT22;6553;48.412;9.514;2022-10-23T01:48:28;18.60;99.90
12977;DHT22;6553;48.412;9.514;2022-10-23T01:50:59;18.60;99.90
12977;DHT22;6553;48.412;9.514;2022-10-23T01:53:30;18.60;99.90
12977;DHT22;6553;48.412;9.514;2022-10-23T01:56:02;18.60;99.90
12977;DHT22;6553;48.412;9.514;2022-10-23T01:58:32;18.60;99.90
12977;DHT22;6553;48.412;9.514;2022-10-23T02:01:02;18.60;99.90
12977;DHT22;6553;48.412;9.514;2022-10-23T02:03:43;18.60;99.90
12977;DHT22;6553;48.412;9.514;2022-10-23T02:06:09;18.60;99.90
12977;DHT22;6553;48.412;9.514;2022-10-23T02:08:35;18.60;99.90
12977;DHT22;6553;48.412;9.514;2022-10-23T02:11:11;18.60;99.90
12977;DHT22;6553;48.412;9.514;2022-10-23T02:16:38;18.60;99.90
12977;DHT22;6553;48.412;9.514;2022-10-23T02:19:10;18.60;99.90
12977;DHT22;6553;48.412;9.514;2022-10-23T02:24:35;18.60;99.90
12977;DHT22;6553;48.412;9.514;2022-10-23T02:27:14;18.60;99.90
12977;DHT22;6553;48.412;9.514;2022-10-23T02:29:52;18.60;99.90
12977;DHT22;6553;48.412;9.514;2022-10-23T02:32:23;18.60;99.90
12977;DHT22;6553;48.412;9.514;2022-10-23T02:34:52;18.60;99.90
12977;DHT22;6553;48.412;9.514;2022-10-23T02:37:18;18.60;99.90
12977;DHT22;6553;48.412;9.514;2022-10-23T02:39:43;18.60;99.90
12977;DHT22;6553;48.412;9.514;2022-10-23T02:45:02;18.60;99.90
12977;DHT22;6553;48.412;9.514;2022-10-23T02:51:05;18.60;99.90
12977;DHT22;6553;48.412;9.514;2022-10-23T02:56:42;18.60;99.90
12977;DHT22;6553;48.412;9.514;2022-10-23T02:59:25;18.60;99.90
12977;DHT22;6553;48.412;9.514;2022-10-23T03:02:05;18.60;99.90
12977;DHT22;6553;48.412;9.514;2022-10-23T03:04:39;18.60;99.90
12977;DHT22;6553;48.412;9.514;2022-10-23T03:07:12;18.60;99.90
12977;DHT22;6553;48.412;9.514;2022-10-23T03:09:40;18.50;99.90
12977;DHT22;6553;48.412;9.514;2022-10-23T03:12:06;18.50;99.90
12977;DHT22;6553;48.412;9.514;2022-10-23T03:14:33;18.60;99.90
12977;DHT22;6553;48.412;9.514;2022-10-23T03:17:01;18.50;99.90
12977;DHT22;6553;48.412;9.514;2022-10-23T03:19:27;18.50;99.90
12977;DHT22;6553;48.412;9.514;2022-10-23T03:21:55;18.50;99.90
12977;DHT22;6553;48.412;9.514;2022-10-23T03:24:20;18.50;99.90
12977;DHT22;6553;48.412;9.514;2022-10-23T03:26:46;18.50;99.90
12977;DHT22;6553;48.412;9.514;2022-10-23T03:29:12;18.50;99.90
12977;DHT22;6553;48.412;9.514;2022-10-23T03:31:45;18.60;99.90
12977;DHT22;6553;48.412;9.514;2022-10-23T03:34:10;18.60;99.90
12977;DHT22;6553;48.412;9.514;2022-10-23T03:36:39;18.60;99.90
12977;DHT22;6553;48.412;9.514;2022-10-23T03:39:06;18.60;99.90
12977;DHT22;6553;48.412;9.514;2022-10-23T03:41:32;18.60;99.90
12977;DHT22;6553;48.412;9.514;2022-10-23T03:43:58;18.50;99.90
12977;DHT22;6553;48.412;9.514;2022-10-23T03:46:24;18.50;99.90
12977;DHT22;6553;48.412;9.514;2022-10-23T03:48:53;18.50;99.90
12977;DHT22;6553;48.412;9.514;2022-10-23T03:51:21;18.50;99.90
12977;DHT22;6553;48.412;9.514;2022-10-23T03:53:47;18.50;99.90
12977;DHT22;6553;48.412;9.514;2022-10-23T03:56:15;18.60;99.90
12977;DHT22;6553;48.412;9.514;2022-10-23T03:58:41;18.50;99.90
12977;DHT22;6553;48.412;9.514;2022-10-23T04:01:06;18.50;99.90
12977;DHT22;6553;48.412;9.514;2022-10-23T04:03:34;18.50;99.90
12977;DHT22;6553;48.412;9.514;2022-10-23T04:06:00;18.50;99.90
12977;DHT22;6553;48.412;9.514;2022-10-23T04:08:26;18.50;99.90
12977;DHT22;6553;48.412;9.514;2022-10-23T04:10:54;18.50;99.90
12977;DHT22;6553;48.412;9.514;2022-10-23T04:13:26;18.50;99.90
12977;DHT22;6553;48.412;9.514;2022-10-23T04:15:52;18.50;99.90
12977;DHT22;6553;48.412;9.514;2022-10-23T04:18:18;18.50;99.90
12977;DHT22;6553;48.412;9.514;2022-10-23T04:20:49;18.50;99.90
12977;DHT22;6553;48.412;9.514;2022-10-23T04:23:16;18.60;99.90
12977;DHT22;6553;48.412;9.514;2022-10-23T04:25:43;18.50;99.90
12977;DHT22;6553;48.412;9.514;2022-10-23T04:28:09;18.50;99.90
12977;DHT22;6553;48.412;9.514;2022-10-23T04:30:37;18.50;99.90
12977;DHT22;6553;48.412;9.514;2022-10-23T04:33:04;18.60;99.90
12977;DHT22;6553;48.412;9.514;2022-10-23T04:35:30;18.50;99.90
12977;DHT22;6553;48.412;9.514;2022-10-23T04:37:55;18.50;99.90
12977;DHT22;6553;48.412;9.514;2022-10-23T04:40:23;18.50;99.90
12977;DHT22;6553;48.412;9.514;2022-10-23T04:42:51;18.50;99.90
12977;DHT22;6553;48.412;9.514;2022-10-23T04:45:17;18.50;99.90
12977;DHT22;6553;48.412;9.514;2022-10-23T04:47:43;18.50;99.90
12977;DHT22;6553;48.412;9.514;2022-10-23T04:50:09;18.50;99.90
12977;DHT22;6553;48.412;9.514;2022-10-23T04:52:54;18.50;99.90
12977;DHT22;6553;48.412;9.514;2022-10-23T04:55:48;18.50;99.90
12977;DHT22;6553;48.412;9.514;2022-10-23T04:58:21;18.50;99.90
12977;DHT22;6553;48.412;9.514;2022-10-23T05:00:50;18.50;99.90
12977;DHT22;6553;48.412;9.514;2022-10-23T05:03:23;18.50;99.90
12977;DHT22;6553;48.412;9.514;2022-10-23T05:05:54;18.50;99.90
12977;DHT22;6553;48.412;9.514;2022-10-23T05:08:38;18.50;99.90
12977;DHT22;6553;48.412;9.514;2022-10-23T05:11:19;18.50;99.90
12977;DHT22;6553;48.412;9.514;2022-10-23T05:13:47;18.50;99.90
12977;DHT22;6553;48.412;9.514;2022-10-23T05:16:36;18.50;99.90
12977;DHT22;6553;48.412;9.514;2022-10-23T05:19:08;18.50;99.90
12977;DHT22;6553;48.412;9.514;2022-10-23T05:21:38;18.50;99.90
12977;DHT22;6553;48.412;9.514;2022-10-23T05:24:05;18.50;99.90
12977;DHT22;6553;48.412;9.514;2022-10-23T05:26:31;18.50;99.90
12977;DHT22;6553;48.412;9.514;2022-10-23T05:29:02;18.50;99.90
12977;DHT22;6553;48.412;9.514;2022-10-23T05:31:28;18.50;99.90
12977;DHT22;6553;48.412;9.514;2022-10-23T05:34:03;18.50;99.90
12977;DHT22;6553;48.412;9.514;2022-10-23T05:36:29;18.50;99.90
12977;DHT22;6553;48.412;9.514;2022-10-23T05:38:57;18.50;99.90
12977;DHT22;6553;48.412;9.514;2022-10-23T05:41:24;18.50;99.90
12977;DHT22;6553;48.412;9.514;2022-10-23T05:43:50;18.50;99.90
12977;DHT22;6553;48.412;9.514;2022-10-23T05:46:41;18.50;99.90
12977;DHT22;6553;48.412;9.514;2022-10-23T05:49:14;18.50;99.90
12977;DHT22;6553;48.412;9.514;2022-10-23T05:52:18;18.50;99.90
12977;DHT22;6553;48.412;9.514;2022-10-23T05:54:58;18.50;99.90
12977;DHT22;6553;48.412;9.514;2022-10-23T05:57:47;18.50;99.90
12977;DHT22;6553;48.412;9.514;2022-10-23T06:00:18;18.50;99.90
12977;DHT22;6553;48.412;9.514;2022-10-23T06:02:51;18.50;99.90
12977;DHT22;6553;48.412;9.514;2022-10-23T06:05:30;18.50;99.90
12977;DHT22;6553;48.412;9.514;2022-10-23T06:08:17;18.50;99.90
12977;DHT22;6553;48.412;9.514;2022-10-23T06:10:43;18.50;99.90
12977;DHT22;6553;48.412;9.514;2022-10-23T06:13:10;18.50;99.90
12977;DHT22;6553;48.412;9.514;2022-10-23T06:15:36;18.50;99.90
12977;DHT22;6553;48.412;9.514;2022-10-23T06:18:08;18.50;99.90
12977;DHT22;6553;48.412;9.514;2022-10-23T06:20:38;18.50;99.90
12977;DHT22;6553;48.412;9.514;2022-10-23T06:23:10;18.50;99.90
12977;DHT22;6553;48.412;9.514;2022-10-23T06:26:05;18.50;99.90
12977;DHT22;6553;48.412;9.514;2022-10-23T06:28:51;18.50;99.90
12977;DHT22;6553;48.412;9.514;2022-10-23T06:31:17;18.50;99.90
12977;DHT22;6553;48.412;9.514;2022-10-23T06:33:44;18.50;99.90
12977;DHT22;6553;48.412;9.514;2022-10-23T06:36:11;18.50;99.90
12977;DHT22;6553;48.412;9.514;2022-10-23T06:38:40;18.50;99.90
12977;DHT22;6553;48.412;9.514;2022-10-23T06:41:12;18.50;99.90
12977;DHT22;6553;48.412;9.514;2022-10-23T06:43:40;18.50;99.90
12977;DHT22;6553;48.412;9.514;2022-10-23T06:46:25;18.50;99.90
12977;DHT22;6553;48.412;9.514;2022-10-23T06:49:19;18.50;99.90
12977;DHT22;6553;48.412;9.514;2022-10-23T06:51:48;18.50;99.90
12977;DHT22;6553;48.412;9.514;2022-10-23T06:54:15;18.50;99.90
12977;DHT22;6553;48.412;9.514;2022-10-23T06:56:47;18.50;99.90
12977;DHT22;6553;48.412;9.514;2022-10-23T06:59:16;18.50;99.90
12977;DHT22;6553;48.412;9.514;2022-10-23T07:01:44;18.50;99.90
12977;DHT22;6553;48.412;9.514;2022-10-23T07:04:10;18.50;99.90
12977;DHT22;6553;48.412;9.514;2022-10-23T07:06:39;18.50;99.90
12977;DHT22;6553;48.412;9.514;2022-10-23T07:09:07;18.50;99.90
12977;DHT22;6553;48.412;9.514;2022-10-23T07:11:51;18.50;99.90
12977;DHT22;6553;48.412;9.514;2022-10-23T07:14:18;18.50;99.90
12977;DHT22;6553;48.412;9.514;2022-10-23T07:16:44;18.50;99.90
12977;DHT22;6553;48.412;9.514;2022-10-23T07:19:11;18.50;99.90
12977;DHT22;6553;48.412;9.514;2022-10-23T07:21:56;18.50;99.90
12977;DHT22;6553;48.412;9.514;2022-10-23T07:24:42;18.50;99.90
12977;DHT22;6553;48.412;9.514;2022-10-23T07:27:20;18.50;99.90
12977;DHT22;6553;48.412;9.514;2022-10-23T07:29:53;18.50;99.90
12977;DHT22;6553;48.412;9.514;2022-10-23T07:32:18;18.50;99.90
12977;DHT22;6553;48.412;9.514;2022-10-23T07:35:03;18.60;99.90
12977;DHT22;6553;48.412;9.514;2022-10-23T07:37:32;18.60;99.90
12977;DHT22;6553;48.412;9.514;2022-10-23T07:40:01;18.50;99.90
12977;DHT22;6553;48.412;9.514;2022-10-23T07:42:29;18.50;99.90
12977;DHT22;6553;48.412;9.514;2022-10-23T07:44:56;18.60;99.90
12977;DHT22;6553;48.412;9.514;2022-10-23T07:47:22;18.60;99.90
12977;DHT22;6553;48.412;9.514;2022-10-23T07:49:50;18.60;99.90
12977;DHT22;6553;48.412;9.514;2022-10-23T07:52:18;18.60;99.90
12977;DHT22;6553;48.412;9.514;2022-10-23T07:55:06;18.60;99.90
12977;DHT22;6553;48.412;9.514;2022-10-23T07:57:34;18.60;99.90
12977;DHT22;6553;48.412;9.514;2022-10-23T08:00:14;18.60;99.90
12977;DHT22;6553;48.412;9.514;2022-10-23T08:02:39;18.60;99.90
12977;DHT22;6553;48.412;9.514;2022-10-23T08:05:07;18.50;99.90
12977;DHT22;6553;48.412;9.514;2022-10-23T08:07:39;18.50;99.90
12977;DHT22;6553;48.412;9.514;2022-10-23T08:10:06;18.50;99.90
12977;DHT22;6553;48.412;9.514;2022-10-23T08:12:33;18.50;99.90
12977;DHT22;6553;48.412;9.514;2022-10-23T08:15:00;18.50;99.90
12977;DHT22;6553;48.412;9.514;2022-10-23T08:17:34;18.50;99.90
12977;DHT22;6553;48.412;9.514;2022-10-23T08:20:15;18.50;99.90
12977;DHT22;6553;48.412;9.514;2022-10-23T08:22:43;18.60;99.90
12977;DHT22;6553;48.412;9.514;2022-10-23T08:25:11;18.60;99.90
12977;DHT22;6553;48.412;9.514;2022-10-23T08:27:37;18.60;99.90
12977;DHT22;6553;48.412;9.514;2022-10-23T08:30:04;18.60;99.90
12977;DHT22;6553;48.412;9.514;2022-10-23T08:32:30;18.70;99.90
12977;DHT22;6553;48.412;9.514;2022-10-23T08:35:01;18.70;99.90
12977;DHT22;6553;48.412;9.514;2022-10-23T08:37:29;18.70;99.90
12977;DHT22;6553;48.412;9.514;2022-10-23T08:39:55;18.70;99.90
12977;DHT22;6553;48.412;9.514;2022-10-23T08:42:48;18.80;99.90
12977;DHT22;6553;48.412;9.514;2022-10-23T08:48:40;18.80;99.90
12977;DHT22;6553;48.412;9.514;2022-10-23T08:51:35;18.80;99.90
12977;DHT22;6553;48.412;9.514;2022-10-23T08:54:26;18.80;99.90
12977;DHT22;6553;48.412;9.514;2022-10-23T08:57:11;18.80;99.90
12977;DHT22;6553;48.412;9.514;2022-10-23T08:59:47;18.80;99.90
12977;DHT22;6553;48.412;9.514;2022-10-23T09:02:29;18.80;99.90
12977;DHT22;6553;48.412;9.514;2022-10-23T09:05:00;18.80;99.90
12977;DHT22;6553;48.412;9.514;2022-10-23T09:10:47;18.90;99.90
12977;DHT22;6553;48.412;9.514;2022-10-23T09:18:57;18.90;99.90
12977;DHT22;6553;48.412;9.514;2022-10-23T09:21:27;18.90;99.90
12977;DHT22;6553;48.412;9.514;2022-10-23T09:23:54;18.90;99.90
12977;DHT22;6553;48.412;9.514;2022-10-23T09:26:21;18.90;99.90
12977;DHT22;6553;48.412;9.514;2022-10-23T09:28:56;18.90;99.90
12977;DHT22;6553;48.412;9.514;2022-10-23T09:31:31;18.90;99.90
12977;DHT22;6553;48.412;9.514;2022-10-23T09:34:00;18.90;99.90
12977;DHT22;6553;48.412;9.514;2022-10-23T09:36:27;18.90;99.90
12977;DHT22;6553;48.412;9.514;2022-10-23T09:38:58;18.90;99.90
12977;DHT22;6553;48.412;9.514;2022-10-23T09:41:35;18.90;99.90
12977;DHT22;6553;48.412;9.514;2022-10-23T09:44:21;19.00;99.90
12977;DHT22;6553;48.412;9.514;2022-10-23T09:46:53;18.90;99.90
12977;DHT22;6553;48.412;9.514;2022-10-23T09:49:25;18.90;99.90
12977;DHT22;6553;48.412;9.514;2022-10-23T09:54:37;19.00;99.90
12977;DHT22;6553;48.412;9.514;2022-10-23T10:00:19;19.00;99.90
12977;DHT22;6553;48.412;9.514;2022-10-23T10:03:04;19.00;99.90
12977;DHT22;6553;48.412;9.514;2022-10-23T10:06:02;19.00;99.90
12977;DHT22;6553;48.412;9.514;2022-10-23T10:08:41;19.00;99.90
12977;DHT22;6553;48.412;9.514;2022-10-23T10:11:16;19.00;99.90
12977;DHT22;6553;48.412;9.514;2022-10-23T10:14:16;19.00;99.90
12977;DHT22;6553;48.412;9.514;2022-10-23T10:16:51;19.00;99.90
12977;DHT22;6553;48.412;9.514;2022-10-23T10:19:48;19.00;99.90
12977;DHT22;6553;48.412;9.514;2022-10-23T10:22:46;19.00;99.90
12977;DHT22;6553;48.412;9.514;2022-10-23T10:26:10;19.00;99.90
12977;DHT22;6553;48.412;9.514;2022-10-23T10:36:53;19.00;99.90
12977;DHT22;6553;48.412;9.514;2022-10-23T10:39:38;19.00;99.90
12977;DHT22;6553;48.412;9.514;2022-10-23T10:42:27;19.10;99.90
12977;DHT22;6553;48.412;9.514;2022-10-23T10:54:41;19.10;99.90
12977;DHT22;6553;48.412;9.514;2022-10-23T10:57:20;19.10;99.90
12977;DHT22;6553;48.412;9.514;2022-10-23T10:59:56;19.10;99.90
12977;DHT22;6553;48.412;9.514;2022-10-23T11:02:39;19.10;99.90
12977;DHT22;6553;48.412;9.514;2022-10-23T11:07:55;19.10;99.90
12977;DHT22;6553;48.412;9.514;2022-10-23T11:10:32;19.10;99.90
12977;DHT22;6553;48.412;9.514;2022-10-23T11:13:03;19.10;99.90
12977;DHT22;6553;48.412;9.514;2022-10-23T11:15:39;19.10;99.90
12977;DHT22;6553;48.412;9.514;2022-10-23T11:18:24;19.10;99.90
12977;DHT22;6553;48.412;9.514;2022-10-23T11:21:01;19.10;99.90
12977;DHT22;6553;48.412;9.514;2022-10-23T11:30:20;19.10;99.90
12977;DHT22;6553;48.412;9.514;2022-10-23T11:38:47;19.10;99.90
12977;DHT22;6553;48.412;9.514;2022-10-23T11:41:26;19.10;99.90
12977;DHT22;6553;48.412;9.514;2022-10-23T11:43:59;19.10;99.90
12977;DHT22;6553;48.412;9.514;2022-10-23T11:46:36;19.10;99.90
12977;DHT22;6553;48.412;9.514;2022-10-23T11:49:05;19.10;99.90
12977;DHT22;6553;48.412;9.514;2022-10-23T11:51:45;19.10;99.90
12977;DHT22;6553;48.412;9.514;2022-10-23T11:56:50;19.10;99.90
12977;DHT22;6553;48.412;9.514;2022-10-23T11:59:33;19.20;99.90
12977;DHT22;6553;48.412;9.514;2022-10-23T12:02:32;19.20;99.90
12977;DHT22;6553;48.412;9.514;2022-10-23T12:05:06;19.10;99.90
12977;DHT22;6553;48.412;9.514;2022-10-23T12:07:53;19.10;99.90
12977;DHT22;6553;48.412;9.514;2022-10-23T12:10:35;19.10;99.90
12977;DHT22;6553;48.412;9.514;2022-10-23T12:16:04;19.10;99.90
12977;DHT22;6553;48.412;9.514;2022-10-23T12:18:32;19.10;99.90
12977;DHT22;6553;48.412;9.514;2022-10-23T12:21:00;19.10;99.90
12977;DHT22;6553;48.412;9.514;2022-10-23T12:24:01;19.10;99.90
12977;DHT22;6553;48.412;9.514;2022-10-23T12:37:55;19.20;99.90
12977;DHT22;6553;48.412;9.514;2022-10-23T12:40:29;19.20;99.90
12977;DHT22;6553;48.412;9.514;2022-10-23T12:42:57;19.20;99.90
12977;DHT22;6553;48.412;9.514;2022-10-23T12:45:30;19.20;99.90
12977;DHT22;6553;48.412;9.514;2022-10-23T12:48:01;19.20;99.90
12977;DHT22;6553;48.412;9.514;2022-10-23T12:50:29;19.20;99.90
12977;DHT22;6553;48.412;9.514;2022-10-23T12:53:05;19.20;99.90
12977;DHT22;6553;48.412;9.514;2022-10-23T12:55:56;19.20;99.90
12977;DHT22;6553;48.412;9.514;2022-10-23T12:58:25;19.20;99.90
12977;DHT22;6553;48.412;9.514;2022-10-23T13:01:04;19.20;99.90
12977;DHT22;6553;48.412;9.514;2022-10-23T13:03:32;19.20;99.90
12977;DHT22;6553;48.412;9.514;2022-10-23T13:05:59;19.20;99.90
12977;DHT22;6553;48.412;9.514;2022-10-23T13:08:39;19.20;99.90
12977;DHT22;6553;48.412;9.514;2022-10-23T13:11:27;19.20;99.90
12977;DHT22;6553;48.412;9.514;2022-10-23T13:13:57;19.20;99.90
12977;DHT22;6553;48.412;9.514;2022-10-23T13:16:25;19.20;99.90
12977;DHT22;6553;48.412;9.514;2022-10-23T13:18:51;19.20;99.90
12977;DHT22;6553;48.412;9.514;2022-10-23T13:21:23;19.20;99.90
12977;DHT22;6553;48.412;9.514;2022-10-23T13:23:51;19.20;99.90
12977;DHT22;6553;48.412;9.514;2022-10-23T13:26:34;19.20;99.90
12977;DHT22;6553;48.412;9.514;2022-10-23T13:29:22;19.20;99.90
12977;DHT22;6553;48.412;9.514;2022-10-23T13:31:51;19.20;99.90
12977;DHT22;6553;48.412;9.514;2022-10-23T13:34:25;19.20;99.90
12977;DHT22;6553;48.412;9.514;2022-10-23T13:37:24;19.20;99.90
12977;DHT22;6553;48.412;9.514;2022-10-23T13:40:06;19.20;99.90
12977;DHT22;6553;48.412;9.514;2022-10-23T13:42:51;19.20;99.90
12977;DHT22;6553;48.412;9.514;2022-10-23T13:45:21;19.20;99.90
12977;DHT22;6553;48.412;9.514;2022-10-23T13:47:49;19.20;99.90
12977;DHT22;6553;48.412;9.514;2022-10-23T13:50:16;19.20;99.90
12977;DHT22;6553;48.412;9.514;2022-10-23T13:52:42;19.20;99.90
12977;DHT22;6553;48.412;9.514;2022-10-23T13:55:24;19.20;99.90
12977;DHT22;6553;48.412;9.514;2022-10-23T13:57:51;19.20;99.90
12977;DHT22;6553;48.412;9.514;2022-10-23T14:00:17;19.20;99.90
12977;DHT22;6553;48.412;9.514;2022-10-23T14:02:43;19.20;99.90
12977;DHT22;6553;48.412;9.514;2022-10-23T14:05:10;19.20;99.90
12977;DHT22;6553;48.412;9.514;2022-10-23T14:07:36;19.20;99.90
12977;DHT22;6553;48.412;9.514;2022-10-23T14:10:02;19.20;99.90
12977;DHT22;6553;48.412;9.514;2022-10-23T14:12:29;19.20;99.90
12977;DHT22;6553;48.412;9.514;2022-10-23T14:14:55;19.20;99.90
12977;DHT22;6553;48.412;9.514;2022-10-23T14:17:20;19.20;99.90
12977;DHT22;6553;48.412;9.514;2022-10-23T14:19:46;19.20;99.90
12977;DHT22;6553;48.412;9.514;2022-10-23T14:22:12;19.20;99.90
12977;DHT22;6553;48.412;9.514;2022-10-23T14:24:38;19.20;99.90
12977;DHT22;6553;48.412;9.514;2022-10-23T14:27:04;19.20;99.90
12977;DHT22;6553;48.412;9.514;2022-10-23T14:29:30;19.20;99.90
12977;DHT22;6553;48.412;9.514;2022-10-23T14:31:55;19.20;99.90
12977;DHT22;6553;48.412;9.514;2022-10-23T14:34:21;19.20;99.90
12977;DHT22;6553;48.412;9.514;2022-10-23T14:36:47;19.20;99.90
12977;DHT22;6553;48.412;9.514;2022-10-23T14:39:12;19.20;99.90
12977;DHT22;6553;48.412;9.514;2022-10-23T14:41:38;19.20;99.90
12977;DHT22;6553;48.412;9.514;2022-10-23T14:44:05;19.20;99.90
12977;DHT22;6553;48.412;9.514;2022-10-23T14:46:31;19.20;99.90
12977;DHT22;6553;48.412;9.514;2022-10-23T14:48:57;19.20;99.90
12977;DHT22;6553;48.412;9.514;2022-10-23T14:51:24;19.20;99.90
12977;DHT22;6553;48.412;9.514;2022-10-23T14:53:59;19.20;99.90
12977;DHT22;6553;48.412;9.514;2022-10-23T14:56:31;19.20;99.90
12977;DHT22;6553;48.412;9.514;2022-10-23T14:59:00;19.20;99.90
12977;DHT22;6553;48.412;9.514;2022-10-23T15:01:35;19.20;99.90
12977;DHT22;6553;48.412;9.514;2022-10-23T15:04:03;19.20;99.90
12977;DHT22;6553;48.412;9.514;2022-10-23T15:06:29;19.20;99.90
12977;DHT22;6553;48.412;9.514;2022-10-23T15:08:55;19.20;99.90
12977;DHT22;6553;48.412;9.514;2022-10-23T15:11:22;19.20;99.90
12977;DHT22;6553;48.412;9.514;2022-10-23T15:13:48;19.20;99.90
12977;DHT22;6553;48.412;9.514;2022-10-23T15:16:15;19.20;99.90
12977;DHT22;6553;48.412;9.514;2022-10-23T15:18:41;19.20;99.90
12977;DHT22;6553;48.412;9.514;2022-10-23T15:21:07;19.20;99.90
12977;DHT22;6553;48.412;9.514;2022-10-23T15:23:35;19.20;99.90
12977;DHT22;6553;48.412;9.514;2022-10-23T15:26:05;19.20;99.90
12977;DHT22;6553;48.412;9.514;2022-10-23T15:28:33;19.20;99.90
12977;DHT22;6553;48.412;9.514;2022-10-23T15:30:59;19.20;99.90
12977;DHT22;6553;48.412;9.514;2022-10-23T15:33:26;19.20;99.90
12977;DHT22;6553;48.412;9.514;2022-10-23T15:35:53;19.20;99.90
12977;DHT22;6553;48.412;9.514;2022-10-23T15:38:19;19.20;99.90
12977;DHT22;6553;48.412;9.514;2022-10-23T15:40:44;19.20;99.90
12977;DHT22;6553;48.412;9.514;2022-10-23T15:43:11;19.20;99.90
12977;DHT22;6553;48.412;9.514;2022-10-23T15:45:39;19.20;99.90
12977;DHT22;6553;48.412;9.514;2022-10-23T15:48:06;19.20;99.90
12977;DHT22;6553;48.412;9.514;2022-10-23T15:50:33;19.20;99.90
12977;DHT22;6553;48.412;9.514;2022-10-23T15:53:00;19.10;99.90
12977;DHT22;6553;48.412;9.514;2022-10-23T15:55:26;19.20;99.90
12977;DHT22;6553;48.412;9.514;2022-10-23T15:57:53;19.20;99.90
12977;DHT22;6553;48.412;9.514;2022-10-23T16:00:19;19.20;99.90
12977;DHT22;6553;48.412;9.514;2022-10-23T16:02:45;19.20;99.90
12977;DHT22;6553;48.412;9.514;2022-10-23T16:05:11;19.20;99.90
12977;DHT22;6553;48.412;9.514;2022-10-23T16:07:36;19.20;99.90
12977;DHT22;6553;48.412;9.514;2022-10-23T16:10:03;19.20;99.90
12977;DHT22;6553;48.412;9.514;2022-10-23T16:12:29;19.20;99.90
12977;DHT22;6553;48.412;9.514;2022-10-23T16:14:54;19.20;99.90
12977;DHT22;6553;48.412;9.514;2022-10-23T16:17:20;19.20;99.90
12977;DHT22;6553;48.412;9.514;2022-10-23T16:19:46;19.20;99.90
12977;DHT22;6553;48.412;9.514;2022-10-23T16:22:12;19.20;99.90
12977;DHT22;6553;48.412;9.514;2022-10-23T16:24:38;19.20;99.90
12977;DHT22;6553;48.412;9.514;2022-10-23T16:27:03;19.10;99.90
12977;DHT22;6553;48.412;9.514;2022-10-23T16:29:30;19.20;99.90
12977;DHT22;6553;48.412;9.514;2022-10-23T16:31:56;19.20;99.90
12977;DHT22;6553;48.412;9.514;2022-10-23T16:34:24;19.20;99.90
12977;DHT22;6553;48.412;9.514;2022-10-23T16:36:50;19.10;99.90
12977;DHT22;6553;48.412;9.514;2022-10-23T16:39:26;19.20;99.90
12977;DHT22;6553;48.412;9.514;2022-10-23T16:42:11;19.20;99.90
12977;DHT22;6553;48.412;9.514;2022-10-23T16:44:48;19.20;99.90
12977;DHT22;6553;48.412;9.514;2022-10-23T16:47:14;19.20;99.90
12977;DHT22;6553;48.412;9.514;2022-10-23T16:49:39;19.20;99.90
12977;DHT22;6553;48.412;9.514;2022-10-23T16:52:05;19.20;99.90
12977;DHT22;6553;48.412;9.514;2022-10-23T16:54:31;19.20;99.90
12977;DHT22;6553;48.412;9.514;2022-10-23T16:56:57;19.20;99.90
12977;DHT22;6553;48.412;9.514;2022-10-23T16:59:23;19.20;99.90
12977;DHT22;6553;48.412;9.514;2022-10-23T17:01:48;19.20;99.90
12977;DHT22;6553;48.412;9.514;2022-10-23T17:04:14;19.20;99.90
12977;DHT22;6553;48.412;9.514;2022-10-23T17:06:40;19.20;99.90
12977;DHT22;6553;48.412;9.514;2022-10-23T17:09:06;19.20;99.90
12977;DHT22;6553;48.412;9.514;2022-10-23T17:11:34;19.20;99.90
12977;DHT22;6553;48.412;9.514;2022-10-23T17:14:07;19.20;99.90
12977;DHT22;6553;48.412;9.514;2022-10-23T17:16:39;19.20;99.90
12977;DHT22;6553;48.412;9.514;2022-10-23T17:19:08;19.20;99.90
12977;DHT22;6553;48.412;9.514;2022-10-23T17:21:36;19.20;99.90
12977;DHT22;6553;48.412;9.514;2022-10-23T17:24:03;19.20;99.90
12977;DHT22;6553;48.412;9.514;2022-10-23T17:26:30;19.20;99.90
12977;DHT22;6553;48.412;9.514;2022-10-23T17:28:57;19.20;99.90
12977;DHT22;6553;48.412;9.514;2022-10-23T17:31:29;19.20;99.90
12977;DHT22;6553;48.412;9.514;2022-10-23T17:33:58;19.20;99.90
12977;DHT22;6553;48.412;9.514;2022-10-23T17:36:28;19.20;99.90
12977;DHT22;6553;48.412;9.514;2022-10-23T17:38:55;19.20;99.90
12977;DHT22;6553;48.412;9.514;2022-10-23T17:41:22;19.20;99.90
12977;DHT22;6553;48.412;9.514;2022-10-23T17:43:49;19.20;99.90
12977;DHT22;6553;48.412;9.514;2022-10-23T17:46:16;19.20;99.90
12977;DHT22;6553;48.412;9.514;2022-10-23T17:48:43;19.20;99.90
12977;DHT22;6553;48.412;9.514;2022-10-23T17:51:13;19.20;99.90